DAL19 RJTT-KSEA
Flight info
| Callsign | DAL19 |
|---|---|
| Flight time | N/A |
| Altitude | 37000 |
| Route | INUBO Y808 NOLAX Y812 ADNAP OTR5 KALNA/N0481F390 KALIG CUTEE DCT CARTO DCT 50N180W 51N170W 52N160W/N0494F410 53N150W 53N140W DCT MANJO DCT TOU MARNR8 |
| Aircraft | A359/H-SDE2E3GHIJ1J3J4J5LM1ORWXY/LB1D1 |
Departure
| Time | 2026-05-08 06:41 |
|---|---|
| Airport | Tokyo Haneda International Airport (RJTT) |
Arrival
| Time | N/A |
|---|---|
| Airport | Seattle–Tacoma International Airport (KSEA) |
| Time | Latitude | Longitude | Altitude | Speed | Heading |
|---|---|---|---|---|---|
| 2026-05-08 06:05 | 35.54965 | 139.76880 | 29 ft | 0 kts | 154° |
| 2026-05-08 06:30 | 35.54985 | 139.76868 | 27 ft | 4 kts | 150° |
| 2026-05-08 06:30 | 35.55006 | 139.76854 | 28 ft | 4 kts | 139° |
| 2026-05-08 06:30 | 35.55015 | 139.76832 | 26 ft | 4 kts | 71° |
| 2026-05-08 06:30 | 35.55003 | 139.76804 | 27 ft | 2 kts | 59° |
| 2026-05-08 06:31 | 35.55002 | 139.76802 | 27 ft | 0 kts | 59° |
| 2026-05-08 06:34 | 35.55009 | 139.76816 | 26 ft | 6 kts | 59° |
| 2026-05-08 06:35 | 35.55047 | 139.76893 | 28 ft | 15 kts | 59° |
| 2026-05-08 06:35 | 35.55099 | 139.77012 | 28 ft | 16 kts | 62° |
| 2026-05-08 06:35 | 35.55165 | 139.77091 | 29 ft | 13 kts | 8° |
| 2026-05-08 06:35 | 35.55251 | 139.77054 | 29 ft | 14 kts | 332° |
| 2026-05-08 06:36 | 35.55332 | 139.77074 | 29 ft | 13 kts | 26° |
| 2026-05-08 06:36 | 35.55416 | 139.77063 | 29 ft | 13 kts | 334° |
| 2026-05-08 06:36 | 35.55499 | 139.77006 | 29 ft | 14 kts | 330° |
| 2026-05-08 06:36 | 35.55592 | 139.76990 | 29 ft | 14 kts | 25° |
| 2026-05-08 06:37 | 35.55664 | 139.77051 | 30 ft | 12 kts | 36° |
| 2026-05-08 06:37 | 35.55732 | 139.77110 | 31 ft | 14 kts | 34° |
| 2026-05-08 06:37 | 35.55826 | 139.77189 | 29 ft | 18 kts | 34° |
| 2026-05-08 06:37 | 35.55926 | 139.77288 | 28 ft | 19 kts | 53° |
| 2026-05-08 06:38 | 35.55994 | 139.77429 | 29 ft | 20 kts | 60° |
| 2026-05-08 06:38 | 35.56062 | 139.77575 | 29 ft | 20 kts | 60° |
| 2026-05-08 06:38 | 35.56136 | 139.77729 | 29 ft | 21 kts | 59° |
| 2026-05-08 06:38 | 35.56213 | 139.77888 | 29 ft | 22 kts | 60° |
| 2026-05-08 06:39 | 35.56291 | 139.78053 | 29 ft | 23 kts | 60° |
| 2026-05-08 06:39 | 35.56372 | 139.78225 | 29 ft | 24 kts | 60° |
| 2026-05-08 06:39 | 35.56453 | 139.78400 | 29 ft | 21 kts | 60° |
| 2026-05-08 06:39 | 35.56521 | 139.78543 | 29 ft | 16 kts | 59° |
| 2026-05-08 06:40 | 35.56563 | 139.78632 | 30 ft | 10 kts | 61° |
| 2026-05-08 06:40 | 35.56541 | 139.78693 | 30 ft | 9 kts | 148° |
| 2026-05-08 06:40 | 35.56460 | 139.78749 | 30 ft | 31 kts | 150° |
| 2026-05-08 06:40 | 35.56091 | 139.79011 | 30 ft | 89 kts | 150° |
| 2026-05-08 06:41 | 35.55406 | 139.79499 | 30 ft | 137 kts | 150° |
| 2026-05-08 06:41 | 35.54483 | 139.80143 | 303 ft | 155 kts | 154° |
| 2026-05-08 06:41 | 35.53611 | 139.80909 | 820 ft | 156 kts | 144° |
| 2026-05-08 06:41 | 35.52967 | 139.82035 | 1318 ft | 169 kts | 127° |
| 2026-05-08 06:42 | 35.52420 | 139.83408 | 1498 ft | 189 kts | 126° |
| 2026-05-08 06:42 | 35.51792 | 139.84923 | 1680 ft | 209 kts | 127° |
| 2026-05-08 06:42 | 35.51071 | 139.86551 | 1848 ft | 232 kts | 129° |
| 2026-05-08 06:42 | 35.50237 | 139.88358 | 2007 ft | 253 kts | 129° |
| 2026-05-08 06:43 | 35.49335 | 139.90283 | 2428 ft | 266 kts | 128° |
| 2026-05-08 06:43 | 35.48447 | 139.92299 | 3012 ft | 273 kts | 121° |
| 2026-05-08 06:43 | 35.48098 | 139.94644 | 3549 ft | 292 kts | 89° |
| 2026-05-08 06:43 | 35.48792 | 139.97017 | 4079 ft | 303 kts | 54° |
| 2026-05-08 06:44 | 35.50196 | 139.98962 | 4657 ft | 306 kts | 44° |
| 2026-05-08 06:44 | 35.51705 | 140.00826 | 5260 ft | 309 kts | 44° |
| 2026-05-08 06:44 | 35.53321 | 140.02562 | 5874 ft | 308 kts | 29° |
| 2026-05-08 06:44 | 35.55234 | 140.03540 | 6480 ft | 299 kts | 4° |
| 2026-05-08 06:45 | 35.57231 | 140.03354 | 7050 ft | 283 kts | 332° |
| 2026-05-08 06:45 | 35.58893 | 140.02157 | 7657 ft | 276 kts | 315° |
| 2026-05-08 06:45 | 35.60335 | 140.00600 | 8285 ft | 276 kts | 310° |
| 2026-05-08 06:45 | 35.61829 | 139.99086 | 9001 ft | 283 kts | 318° |
| 2026-05-08 06:46 | 35.63631 | 139.98023 | 9665 ft | 297 kts | 337° |
| 2026-05-08 06:46 | 35.65713 | 139.97633 | 10269 ft | 309 kts | 348° |
| 2026-05-08 06:46 | 35.67915 | 139.97419 | 10557 ft | 325 kts | 348° |
| 2026-05-08 06:46 | 35.70197 | 139.97189 | 10790 ft | 342 kts | 348° |
| 2026-05-08 06:47 | 35.72582 | 139.96913 | 11173 ft | 355 kts | 346° |
| 2026-05-08 06:47 | 35.74997 | 139.96196 | 11427 ft | 361 kts | 334° |
| 2026-05-08 06:47 | 35.77373 | 139.95112 | 11677 ft | 373 kts | 332° |
| 2026-05-08 06:47 | 35.79839 | 139.93955 | 11961 ft | 386 kts | 334° |
| 2026-05-08 06:48 | 35.82504 | 139.93184 | 12399 ft | 402 kts | 347° |
| 2026-05-08 06:48 | 35.85360 | 139.93330 | 12777 ft | 423 kts | 7° |
| 2026-05-08 06:48 | 35.88181 | 139.94537 | 13230 ft | 435 kts | 19° |
| 2026-05-08 06:48 | 35.90957 | 139.96088 | 13677 ft | 441 kts | 20° |
| 2026-05-08 06:49 | 35.93717 | 139.97662 | 14096 ft | 444 kts | 20° |
| 2026-05-08 06:49 | 35.96314 | 139.99138 | 14552 ft | 446 kts | 20° |
| 2026-05-08 06:49 | 35.99048 | 140.00684 | 14976 ft | 450 kts | 20° |
| 2026-05-08 06:49 | 36.01915 | 140.02301 | 15412 ft | 453 kts | 20° |
| 2026-05-08 06:50 | 36.04788 | 140.03921 | 15840 ft | 456 kts | 19° |
| 2026-05-08 06:50 | 36.07661 | 140.05644 | 16259 ft | 464 kts | 25° |
| 2026-05-08 06:50 | 36.10280 | 140.08034 | 16673 ft | 474 kts | 42° |
| 2026-05-08 06:50 | 36.12298 | 140.11280 | 17132 ft | 481 kts | 61° |
| 2026-05-08 06:51 | 36.13514 | 140.15139 | 17510 ft | 482 kts | 79° |
| 2026-05-08 06:51 | 36.13811 | 140.19184 | 17861 ft | 478 kts | 98° |
| 2026-05-08 06:51 | 36.13175 | 140.23157 | 18229 ft | 468 kts | 116° |
| 2026-05-08 06:51 | 36.11681 | 140.26650 | 18634 ft | 454 kts | 135° |
| 2026-05-08 06:52 | 36.09505 | 140.29362 | 19136 ft | 439 kts | 152° |
| 2026-05-08 06:52 | 36.07202 | 140.31899 | 19553 ft | 452 kts | 139° |
| 2026-05-08 06:52 | 36.05150 | 140.34880 | 19906 ft | 458 kts | 138° |
| 2026-05-08 06:52 | 36.03085 | 140.37890 | 20281 ft | 460 kts | 139° |
| 2026-05-08 06:53 | 36.00988 | 140.40883 | 20654 ft | 462 kts | 139° |
| 2026-05-08 06:53 | 35.98856 | 140.43879 | 21029 ft | 465 kts | 140° |
| 2026-05-08 06:53 | 35.96707 | 140.46873 | 21410 ft | 468 kts | 140° |
| 2026-05-08 06:53 | 35.94538 | 140.49878 | 21792 ft | 470 kts | 140° |
| 2026-05-08 06:54 | 35.92351 | 140.52899 | 22155 ft | 473 kts | 140° |
| 2026-05-08 06:54 | 35.90182 | 140.55887 | 22516 ft | 476 kts | 140° |
| 2026-05-08 06:54 | 35.87966 | 140.58937 | 22886 ft | 478 kts | 140° |
| 2026-05-08 06:54 | 35.85737 | 140.61999 | 23243 ft | 481 kts | 140° |
| 2026-05-08 06:55 | 35.83498 | 140.65073 | 23558 ft | 484 kts | 140° |
| 2026-05-08 06:55 | 35.81248 | 140.68160 | 23932 ft | 484 kts | 140° |
| 2026-05-08 06:55 | 35.78993 | 140.71250 | 24292 ft | 486 kts | 140° |
| 2026-05-08 06:55 | 35.76727 | 140.74350 | 24630 ft | 489 kts | 140° |
| 2026-05-08 06:56 | 35.74475 | 140.77518 | 24956 ft | 495 kts | 136° |
| 2026-05-08 06:56 | 35.72549 | 140.81020 | 25297 ft | 509 kts | 126° |
| 2026-05-08 06:56 | 35.71056 | 140.85010 | 25638 ft | 518 kts | 118° |
| 2026-05-08 06:56 | 35.69750 | 140.89165 | 25964 ft | 522 kts | 116° |
| 2026-05-08 06:57 | 35.68529 | 140.93377 | 26396 ft | 524 kts | 115° |
| 2026-05-08 06:57 | 35.67330 | 140.97625 | 26721 ft | 527 kts | 115° |
| 2026-05-08 06:57 | 35.66125 | 141.01884 | 27054 ft | 529 kts | 115° |
| 2026-05-08 06:57 | 35.64907 | 141.06132 | 27392 ft | 532 kts | 116° |
| 2026-05-08 06:58 | 35.63660 | 141.10417 | 27728 ft | 534 kts | 116° |
| 2026-05-08 06:58 | 35.62412 | 141.14663 | 28049 ft | 536 kts | 116° |
| 2026-05-08 06:58 | 35.61137 | 141.18964 | 28386 ft | 537 kts | 116° |
| 2026-05-08 06:58 | 35.59852 | 141.23284 | 28710 ft | 539 kts | 116° |
| 2026-05-08 06:59 | 35.58560 | 141.27615 | 28993 ft | 542 kts | 116° |
| 2026-05-08 06:59 | 35.57261 | 141.31965 | 29278 ft | 544 kts | 116° |
| 2026-05-08 06:59 | 35.55954 | 141.36336 | 29553 ft | 546 kts | 116° |
| 2026-05-08 06:59 | 35.54640 | 141.40728 | 29807 ft | 549 kts | 116° |
| 2026-05-08 07:00 | 35.53322 | 141.45128 | 30039 ft | 549 kts | 116° |
| 2026-05-08 07:00 | 35.52021 | 141.49460 | 30397 ft | 548 kts | 116° |
| 2026-05-08 07:00 | 35.50704 | 141.53850 | 30674 ft | 548 kts | 116° |
| 2026-05-08 07:00 | 35.49382 | 141.58248 | 30936 ft | 549 kts | 116° |
| 2026-05-08 07:01 | 35.48059 | 141.62640 | 31237 ft | 549 kts | 116° |
| 2026-05-08 07:01 | 35.46736 | 141.67030 | 31524 ft | 549 kts | 116° |
| 2026-05-08 07:01 | 35.45446 | 141.71452 | 31793 ft | 552 kts | 112° |
| 2026-05-08 07:01 | 35.44564 | 141.76060 | 32039 ft | 560 kts | 103° |
| 2026-05-08 07:02 | 35.44229 | 141.80828 | 32328 ft | 563 kts | 96° |
| 2026-05-08 07:02 | 35.44094 | 141.85641 | 32589 ft | 565 kts | 94° |
| 2026-05-08 07:02 | 35.44043 | 141.90454 | 32843 ft | 565 kts | 93° |
| 2026-05-08 07:02 | 35.44030 | 141.95210 | 33088 ft | 566 kts | 93° |
| 2026-05-08 07:03 | 35.44025 | 142.00038 | 33338 ft | 566 kts | 93° |
| 2026-05-08 07:03 | 35.44013 | 142.04870 | 33577 ft | 566 kts | 93° |
| 2026-05-08 07:03 | 35.43990 | 142.09686 | 33930 ft | 563 kts | 93° |
| 2026-05-08 07:03 | 35.43957 | 142.14481 | 34220 ft | 561 kts | 93° |
| 2026-05-08 07:04 | 35.43916 | 142.19261 | 34434 ft | 561 kts | 93° |
| 2026-05-08 07:04 | 35.43869 | 142.24041 | 34636 ft | 561 kts | 94° |
| 2026-05-08 07:04 | 35.43819 | 142.28822 | 34854 ft | 560 kts | 93° |
| 2026-05-08 07:04 | 35.43768 | 142.33585 | 35157 ft | 557 kts | 94° |
| 2026-05-08 07:05 | 35.43716 | 142.38257 | 35382 ft | 556 kts | 94° |
| 2026-05-08 07:05 | 35.43661 | 142.42999 | 35543 ft | 557 kts | 94° |
| 2026-05-08 07:05 | 35.43605 | 142.47749 | 35698 ft | 557 kts | 94° |
| 2026-05-08 07:05 | 35.43547 | 142.52490 | 35872 ft | 556 kts | 94° |
| 2026-05-08 07:06 | 35.43491 | 142.57227 | 36129 ft | 554 kts | 94° |
| 2026-05-08 07:06 | 35.43433 | 142.61944 | 36338 ft | 553 kts | 94° |
| 2026-05-08 07:06 | 35.43370 | 142.66654 | 36482 ft | 553 kts | 94° |
| 2026-05-08 07:06 | 35.43304 | 142.71376 | 36618 ft | 553 kts | 94° |
| 2026-05-08 07:07 | 35.43237 | 142.76022 | 36753 ft | 553 kts | 94° |
| 2026-05-08 07:07 | 35.43167 | 142.80744 | 36786 ft | 553 kts | 94° |
| 2026-05-08 07:07 | 35.43025 | 142.90146 | 36808 ft | 551 kts | 94° |
| 2026-05-08 07:08 | 35.42876 | 142.99536 | 36807 ft | 550 kts | 95° |
| 2026-05-08 07:08 | 35.42721 | 143.08920 | 36811 ft | 550 kts | 95° |
| 2026-05-08 07:09 | 35.42559 | 143.18228 | 36811 ft | 550 kts | 95° |
| 2026-05-08 07:09 | 35.42871 | 143.27607 | 36817 ft | 555 kts | 81° |
| 2026-05-08 07:10 | 35.43869 | 143.32185 | 36819 ft | 556 kts | 70° |
| 2026-05-08 07:10 | 35.45530 | 143.36454 | 36818 ft | 556 kts | 57° |
| 2026-05-08 07:10 | 35.47811 | 143.40261 | 36822 ft | 553 kts | 46° |
| 2026-05-08 07:10 | 35.50377 | 143.43768 | 36808 ft | 553 kts | 44° |
| 2026-05-08 07:11 | 35.55726 | 143.50559 | 36809 ft | 553 kts | 43° |
| 2026-05-08 07:11 | 35.61082 | 143.57251 | 36816 ft | 553 kts | 43° |
| 2026-05-08 07:12 | 35.66436 | 143.64033 | 36812 ft | 553 kts | 43° |
| 2026-05-08 07:12 | 35.71769 | 143.70856 | 36809 ft | 553 kts | 43° |
| 2026-05-08 07:13 | 35.77093 | 143.77697 | 36813 ft | 553 kts | 44° |
| 2026-05-08 07:13 | 35.82379 | 143.84501 | 36808 ft | 554 kts | 44° |
| 2026-05-08 07:14 | 35.87703 | 143.91364 | 36811 ft | 554 kts | 44° |
| 2026-05-08 07:14 | 35.93029 | 143.98245 | 36813 ft | 554 kts | 44° |
| 2026-05-08 07:15 | 35.98351 | 144.05135 | 36817 ft | 554 kts | 44° |
| 2026-05-08 07:15 | 36.03663 | 144.12030 | 36813 ft | 554 kts | 44° |
| 2026-05-08 07:16 | 36.08941 | 144.18903 | 36809 ft | 554 kts | 44° |
| 2026-05-08 07:16 | 36.14244 | 144.25822 | 36806 ft | 554 kts | 44° |
| 2026-05-08 07:17 | 36.19552 | 144.32761 | 36809 ft | 556 kts | 44° |
| 2026-05-08 07:17 | 36.24867 | 144.39724 | 36806 ft | 557 kts | 44° |
| 2026-05-08 07:18 | 36.30151 | 144.46663 | 36806 ft | 557 kts | 44° |
| 2026-05-08 07:18 | 36.35458 | 144.53647 | 36807 ft | 557 kts | 44° |
| 2026-05-08 07:19 | 36.40762 | 144.60641 | 36807 ft | 556 kts | 44° |
| 2026-05-08 07:19 | 36.46064 | 144.67648 | 36810 ft | 556 kts | 44° |
| 2026-05-08 07:20 | 36.51361 | 144.74662 | 36810 ft | 556 kts | 44° |
| 2026-05-08 07:20 | 36.56612 | 144.81632 | 36807 ft | 556 kts | 44° |
| 2026-05-08 07:21 | 36.61899 | 144.88664 | 36809 ft | 557 kts | 44° |
| 2026-05-08 07:21 | 36.67190 | 144.95716 | 36809 ft | 557 kts | 44° |
| 2026-05-08 07:22 | 36.72472 | 145.02771 | 36810 ft | 557 kts | 45° |
| 2026-05-08 07:22 | 36.77717 | 145.09792 | 36810 ft | 557 kts | 45° |
| 2026-05-08 07:23 | 36.82990 | 145.16866 | 36806 ft | 557 kts | 45° |
| 2026-05-08 07:23 | 36.88259 | 145.23951 | 36824 ft | 557 kts | 45° |
| 2026-05-08 07:24 | 36.93530 | 145.31053 | 36809 ft | 557 kts | 45° |
| 2026-05-08 07:24 | 36.98764 | 145.38121 | 36807 ft | 557 kts | 45° |
| 2026-05-08 07:25 | 37.04024 | 145.45239 | 36807 ft | 558 kts | 45° |
| 2026-05-08 07:26 | 37.11916 | 145.55948 | 36802 ft | 557 kts | 45° |
| 2026-05-08 07:26 | 37.17164 | 145.63090 | 36801 ft | 556 kts | 45° |
| 2026-05-08 07:27 | 37.21809 | 145.70775 | 36806 ft | 558 kts | 56° |
| 2026-05-08 07:27 | 37.26000 | 145.78984 | 36807 ft | 559 kts | 57° |
| 2026-05-08 07:28 | 37.30099 | 145.87262 | 36801 ft | 558 kts | 58° |
| 2026-05-08 07:28 | 37.34190 | 145.95545 | 36807 ft | 558 kts | 57° |
| 2026-05-08 07:29 | 37.38264 | 146.03776 | 36807 ft | 558 kts | 57° |
| 2026-05-08 07:29 | 37.42359 | 146.12052 | 36810 ft | 557 kts | 58° |
| 2026-05-08 07:30 | 37.46443 | 146.20325 | 36808 ft | 556 kts | 58° |
| 2026-05-08 07:30 | 37.50516 | 146.28597 | 36810 ft | 556 kts | 58° |
| 2026-05-08 07:31 | 37.53898 | 146.35481 | 36811 ft | 556 kts | 58° |
| 2026-05-08 07:31 | 37.58616 | 146.45110 | 36810 ft | 555 kts | 58° |
| 2026-05-08 07:32 | 37.61978 | 146.51990 | 36807 ft | 555 kts | 58° |
| 2026-05-08 07:32 | 37.66023 | 146.60285 | 36810 ft | 555 kts | 58° |
| 2026-05-08 07:33 | 37.70060 | 146.68585 | 36812 ft | 555 kts | 58° |
| 2026-05-08 07:33 | 37.74746 | 146.78246 | 36812 ft | 555 kts | 58° |
| 2026-05-08 07:34 | 37.78094 | 146.85168 | 36813 ft | 555 kts | 58° |
| 2026-05-08 07:34 | 37.82112 | 146.93491 | 36812 ft | 555 kts | 58° |
| 2026-05-08 07:35 | 37.86777 | 147.03182 | 36820 ft | 555 kts | 58° |
| 2026-05-08 07:35 | 37.90135 | 147.10175 | 36813 ft | 555 kts | 58° |
| 2026-05-08 07:36 | 37.94113 | 147.18479 | 36819 ft | 555 kts | 58° |
| 2026-05-08 07:36 | 37.98105 | 147.26834 | 36812 ft | 555 kts | 58° |
| 2026-05-08 07:37 | 38.02095 | 147.35207 | 36816 ft | 555 kts | 59° |
| 2026-05-08 07:37 | 38.06076 | 147.43583 | 36816 ft | 553 kts | 59° |
| 2026-05-08 07:38 | 38.10010 | 147.51882 | 36815 ft | 552 kts | 59° |
| 2026-05-08 07:38 | 38.13967 | 147.60249 | 36818 ft | 553 kts | 59° |
| 2026-05-08 07:39 | 38.17918 | 147.68624 | 36818 ft | 552 kts | 59° |
| 2026-05-08 07:39 | 38.21853 | 147.76988 | 36815 ft | 551 kts | 59° |
| 2026-05-08 07:40 | 38.25750 | 147.85293 | 36817 ft | 550 kts | 59° |
| 2026-05-08 07:40 | 38.29671 | 147.93671 | 36824 ft | 551 kts | 59° |
| 2026-05-08 07:41 | 38.33577 | 148.02040 | 36820 ft | 550 kts | 59° |
| 2026-05-08 07:41 | 38.37478 | 148.10417 | 36819 ft | 549 kts | 59° |
| 2026-05-08 07:42 | 38.41341 | 148.18736 | 36817 ft | 549 kts | 59° |
| 2026-05-08 07:42 | 38.45230 | 148.27131 | 36827 ft | 549 kts | 59° |
| 2026-05-08 07:43 | 38.49112 | 148.35533 | 36822 ft | 550 kts | 59° |
| 2026-05-08 07:43 | 38.52989 | 148.43948 | 36824 ft | 550 kts | 59° |
| 2026-05-08 07:44 | 38.56834 | 148.52316 | 36823 ft | 550 kts | 59° |
| 2026-05-08 07:44 | 38.60699 | 148.60746 | 36826 ft | 550 kts | 59° |
| 2026-05-08 07:45 | 38.64557 | 148.69187 | 36824 ft | 550 kts | 59° |
| 2026-05-08 07:45 | 38.68408 | 148.77632 | 36829 ft | 550 kts | 59° |
| 2026-05-08 07:46 | 38.72223 | 148.86022 | 36834 ft | 548 kts | 59° |
| 2026-05-08 07:46 | 38.76051 | 148.94463 | 36833 ft | 548 kts | 59° |
| 2026-05-08 07:47 | 38.79873 | 149.02913 | 36828 ft | 548 kts | 59° |
| 2026-05-08 07:47 | 38.83685 | 149.11362 | 36832 ft | 547 kts | 59° |
| 2026-05-08 07:48 | 38.87461 | 149.19756 | 36834 ft | 547 kts | 59° |
| 2026-05-08 07:48 | 38.91257 | 149.28216 | 36829 ft | 547 kts | 59° |
| 2026-05-08 07:49 | 38.95047 | 149.36683 | 36829 ft | 547 kts | 59° |
| 2026-05-08 07:49 | 38.98830 | 149.45161 | 36835 ft | 547 kts | 59° |
| 2026-05-08 07:50 | 39.02581 | 149.53585 | 36830 ft | 547 kts | 59° |
| 2026-05-08 07:50 | 39.06352 | 149.62081 | 36835 ft | 547 kts | 59° |
| 2026-05-08 07:51 | 39.10111 | 149.70572 | 36837 ft | 546 kts | 59° |
| 2026-05-08 07:51 | 39.13873 | 149.79073 | 36832 ft | 546 kts | 59° |
| 2026-05-08 07:52 | 39.18442 | 149.86755 | 36834 ft | 543 kts | 46° |
| 2026-05-08 07:52 | 39.23520 | 149.93964 | 36834 ft | 543 kts | 45° |
| 2026-05-08 07:53 | 39.28669 | 150.01092 | 36832 ft | 543 kts | 44° |
| 2026-05-08 07:53 | 39.33810 | 150.08236 | 36837 ft | 543 kts | 45° |
| 2026-05-08 07:54 | 39.38935 | 150.15407 | 36839 ft | 543 kts | 45° |
| 2026-05-08 07:54 | 39.44024 | 150.22559 | 36838 ft | 544 kts | 45° |
| 2026-05-08 07:55 | 39.49147 | 150.29778 | 36841 ft | 545 kts | 45° |
| 2026-05-08 07:55 | 39.54272 | 150.37015 | 36840 ft | 545 kts | 45° |
| 2026-05-08 07:56 | 39.59388 | 150.44257 | 36842 ft | 545 kts | 45° |
| 2026-05-08 07:56 | 39.64503 | 150.51512 | 36840 ft | 545 kts | 45° |
| 2026-05-08 07:57 | 39.69578 | 150.58728 | 36842 ft | 545 kts | 45° |
| 2026-05-08 07:57 | 39.74682 | 150.66004 | 36841 ft | 545 kts | 45° |
| 2026-05-08 07:58 | 39.79795 | 150.73308 | 36841 ft | 547 kts | 45° |
| 2026-05-08 07:58 | 39.84870 | 150.80576 | 36841 ft | 545 kts | 45° |
| 2026-05-08 07:59 | 39.89960 | 150.87884 | 36849 ft | 545 kts | 45° |
| 2026-05-08 07:59 | 39.95045 | 150.95200 | 36838 ft | 545 kts | 45° |
| 2026-05-08 08:00 | 40.00129 | 151.02534 | 36839 ft | 545 kts | 45° |
| 2026-05-08 08:00 | 40.05204 | 151.09871 | 36840 ft | 544 kts | 46° |
| 2026-05-08 08:01 | 40.10238 | 151.17168 | 36846 ft | 544 kts | 46° |
| 2026-05-08 08:01 | 40.15304 | 151.24527 | 36838 ft | 544 kts | 46° |
| 2026-05-08 08:02 | 40.20363 | 151.31894 | 36839 ft | 544 kts | 46° |
| 2026-05-08 08:02 | 40.25412 | 151.39265 | 36837 ft | 544 kts | 46° |
| 2026-05-08 08:03 | 40.30417 | 151.46589 | 36831 ft | 543 kts | 46° |
| 2026-05-08 08:03 | 40.35460 | 151.53985 | 36835 ft | 544 kts | 46° |
| 2026-05-08 08:04 | 40.40489 | 151.61381 | 36832 ft | 544 kts | 46° |
| 2026-05-08 08:04 | 40.45512 | 151.68785 | 36830 ft | 542 kts | 46° |
| 2026-05-08 08:05 | 40.50523 | 151.76191 | 36827 ft | 542 kts | 46° |
| 2026-05-08 08:05 | 40.55492 | 151.83550 | 36824 ft | 542 kts | 46° |
| 2026-05-08 08:06 | 40.60489 | 151.90969 | 36825 ft | 542 kts | 46° |
| 2026-05-08 08:06 | 40.65485 | 151.98405 | 36823 ft | 542 kts | 46° |
| 2026-05-08 08:07 | 40.70471 | 152.05845 | 36820 ft | 542 kts | 46° |
| 2026-05-08 08:07 | 40.75460 | 152.13307 | 36815 ft | 543 kts | 46° |
| 2026-05-08 08:08 | 40.80418 | 152.20741 | 36817 ft | 543 kts | 46° |
| 2026-05-08 08:08 | 40.85398 | 152.28228 | 36815 ft | 543 kts | 46° |
| 2026-05-08 08:09 | 40.90378 | 152.35732 | 36811 ft | 543 kts | 46° |
| 2026-05-08 08:09 | 40.95355 | 152.43251 | 36804 ft | 543 kts | 46° |
| 2026-05-08 08:10 | 41.00285 | 152.50717 | 36833 ft | 543 kts | 46° |
| 2026-05-08 08:10 | 41.05257 | 152.58264 | 36804 ft | 544 kts | 47° |
| 2026-05-08 08:11 | 41.10230 | 152.65832 | 36797 ft | 545 kts | 47° |
| 2026-05-08 08:11 | 41.15201 | 152.73418 | 36796 ft | 545 kts | 47° |
| 2026-05-08 08:12 | 41.20136 | 152.80966 | 36789 ft | 545 kts | 47° |
| 2026-05-08 08:12 | 41.25092 | 152.88567 | 36785 ft | 544 kts | 47° |
| 2026-05-08 08:13 | 41.30042 | 152.96176 | 36792 ft | 544 kts | 47° |
| 2026-05-08 08:13 | 41.34989 | 153.03802 | 36784 ft | 545 kts | 47° |
| 2026-05-08 08:14 | 41.39909 | 153.11402 | 36788 ft | 546 kts | 47° |
| 2026-05-08 08:14 | 41.44857 | 153.19068 | 36779 ft | 545 kts | 47° |
| 2026-05-08 08:15 | 41.49799 | 153.26744 | 36779 ft | 545 kts | 47° |
| 2026-05-08 08:15 | 41.54736 | 153.34430 | 36780 ft | 545 kts | 47° |
| 2026-05-08 08:16 | 41.59634 | 153.42076 | 36779 ft | 545 kts | 47° |
| 2026-05-08 08:16 | 41.64550 | 153.49771 | 36778 ft | 544 kts | 47° |
| 2026-05-08 08:17 | 41.69469 | 153.57489 | 36767 ft | 546 kts | 47° |
| 2026-05-08 08:17 | 41.74391 | 153.65231 | 36772 ft | 546 kts | 47° |
| 2026-05-08 08:18 | 41.79273 | 153.72931 | 36781 ft | 546 kts | 47° |
| 2026-05-08 08:18 | 41.84181 | 153.80694 | 36775 ft | 545 kts | 47° |
| 2026-05-08 08:19 | 41.89072 | 153.88446 | 36776 ft | 545 kts | 47° |
| 2026-05-08 08:19 | 41.93962 | 153.96220 | 36770 ft | 545 kts | 47° |